Time;durP1;ratioP1;P1;durP2;ratioP2;P2;SDS_P1;SDS_P2;PMS_P1;PMS_P2;Temp;Humidity;BMP_temperature;BMP_pressure;BME280_temperature;BME280_humidity;BME280_pressure;Samples;Min_cycle;Max_cycle;Signal;HPM_P1;HPM_P2
2022/05/07 00:02:04;;;;;;;25.27;3.22;;;39.80;16.00;;;;;;5012707;28;20026;-66
2022/05/07 00:04:30;;;;;;;20.95;2.78;;;39.70;16.60;;;;;;5008943;28;20025;-67
2022/05/07 00:06:57;;;;;;;21.48;3.25;;;39.60;16.70;;;;;;5013896;28;20026;-67
2022/05/07 00:09:24;;;;;;;32.15;3.40;;;39.60;17.00;;;;;;5011605;28;20026;-65
2022/05/07 00:11:50;;;;;;;37.55;3.97;;;39.50;17.50;;;;;;5011419;28;20041;-65
2022/05/07 00:14:17;;;;;;;19.77;3.65;;;39.40;17.60;;;;;;5000748;28;20507;-67
2022/05/07 00:19:28;;;;;;;23.85;3.35;;;39.40;17.80;;;;;;5013875;28;20431;-67
2022/05/07 00:21:54;;;;;;;26.15;3.67;;;39.20;18.10;;;;;;5015587;28;20025;-65
2022/05/07 00:24:21;;;;;;;27.50;4.03;;;39.10;18.20;;;;;;5013036;28;20476;-66
2022/05/07 00:26:47;;;;;;;29.83;3.97;;;38.90;18.30;;;;;;5012148;28;20484;-65
2022/05/07 00:29:13;;;;;;;22.63;3.95;;;38.80;18.30;;;;;;5011709;28;20029;-65
2022/05/07 00:31:40;;;;;;;21.25;3.08;;;38.70;18.30;;;;;;5013819;28;20381;-66
2022/05/07 00:34:06;;;;;;;40.55;4.35;;;38.60;18.20;;;;;;5011472;28;20163;-64
2022/05/07 00:36:33;;;;;;;25.88;3.58;;;38.50;18.20;;;;;;4993909;28;20488;-67
2022/05/07 00:39:00;;;;;;;21.35;3.53;;;38.40;18.50;;;;;;5011615;28;20489;-65
2022/05/07 00:41:26;;;;;;;38.80;4.20;;;38.10;18.70;;;;;;5002180;28;20057;-65
2022/05/07 00:43:52;;;;;;;23.60;3.70;;;38.00;18.20;;;;;;5014079;28;20110;-66
2022/05/07 00:46:23;;;;;;;22.52;2.97;;;37.80;18.30;;;;;;4996968;28;20026;-65
2022/05/07 00:48:50;;;;;;;28.38;3.38;;;37.80;18.50;;;;;;5013976;28;20166;-66
2022/05/07 00:51:35;;;;;;;26.75;3.83;;;37.70;18.50;;;;;;5017100;28;20419;-65
2022/05/07 00:54:07;;;;;;;31.08;4.50;;;37.70;18.50;;;;;;5021728;28;20038;-65
2022/05/07 00:56:34;;;;;;;25.20;3.53;;;37.70;18.50;;;;;;5015734;28;20025;-65
2022/05/07 00:59:01;;;;;;;23.25;3.20;;;37.60;18.40;;;;;;5015865;28;20049;-66
2022/05/07 01:01:28;;;;;;;31.38;3.60;;;37.60;18.40;;;;;;5014405;28;20079;-65
2022/05/07 01:03:55;;;;;;;30.88;3.92;;;37.40;18.50;;;;;;5014897;28;20028;-65
2022/05/07 01:06:22;;;;;;;25.90;4.53;;;37.20;18.60;;;;;;5016602;28;20056;-64
2022/05/07 01:08:49;;;;;;;39.53;4.30;;;37.10;18.60;;;;;;5016003;28;20091;-64
2022/05/07 01:11:17;;;;;;;30.17;3.80;;;37.00;19.00;;;;;;5015839;28;20061;-66
2022/05/07 01:13:45;;;;;;;27.23;3.92;;;36.90;19.00;;;;;;5016437;28;20507;-66
2022/05/07 01:16:12;;;;;;;48.90;4.38;;;36.90;19.20;;;;;;5012915;28;20057;-67
2022/05/07 01:18:40;;;;;;;33.17;3.88;;;36.80;19.40;;;;;;5007441;28;20045;-65
2022/05/07 01:21:14;;;;;;;18.30;3.17;;;36.70;19.60;;;;;;5016308;28;20487;-65
2022/05/07 01:23:43;;;;;;;33.15;4.38;;;36.70;19.80;;;;;;5019391;28;20365;-67
2022/05/07 01:26:10;;;;;;;21.15;3.70;;;36.60;19.90;;;;;;5001713;28;20112;-65
2022/05/07 01:28:38;;;;;;;25.75;3.30;;;36.40;19.80;;;;;;5015925;28;20430;-67
2022/05/07 01:31:05;;;;;;;24.45;3.05;;;36.30;20.00;;;;;;5015376;28;20030;-68
2022/05/07 01:33:36;;;;;;;28.08;3.35;;;36.20;19.80;;;;;;5015530;28;20021;-65
2022/05/07 01:36:06;;;;;;;17.50;3.25;;;36.00;19.90;;;;;;5014205;28;20025;-66
2022/05/07 01:38:34;;;;;;;18.52;3.67;;;36.00;20.00;;;;;;5013499;28;20531;-65
2022/05/07 01:41:00;;;;;;;25.27;3.85;;;35.90;20.10;;;;;;5014635;28;20071;-65
2022/05/07 01:43:28;;;;;;;33.63;3.75;;;35.70;20.20;;;;;;5011584;28;20030;-65
2022/05/07 01:45:55;;;;;;;35.35;4.00;;;35.60;20.40;;;;;;5016656;28;20050;-65
2022/05/07 01:48:22;;;;;;;27.50;3.30;;;35.50;20.40;;;;;;5014217;28;20611;-66
2022/05/07 01:50:48;;;;;;;27.15;3.22;;;35.50;20.30;;;;;;5024946;28;20116;-66
2022/05/07 01:53:15;;;;;;;39.53;4.38;;;35.40;20.30;;;;;;5015159;28;20057;-66
2022/05/07 01:55:41;;;;;;;47.95;3.97;;;35.30;20.30;;;;;;5025780;28;20553;-64
2022/05/07 01:58:08;;;;;;;27.92;4.72;;;35.10;20.40;;;;;;5013981;28;20029;-67
2022/05/07 02:00:34;;;;;;;25.08;3.78;;;35.00;20.60;;;;;;5013835;28;20085;-64
2022/05/07 02:03:01;;;;;;;29.98;4.47;;;34.80;20.20;;;;;;5014469;28;20492;-66
2022/05/07 02:05:29;;;;;;;32.28;4.53;;;34.60;20.50;;;;;;5014365;28;20396;-65
2022/05/07 02:07:57;;;;;;;28.77;3.38;;;34.60;20.40;;;;;;5016572;28;20043;-66
2022/05/07 02:10:24;;;;;;;17.23;3.22;;;34.50;20.20;;;;;;5015944;28;20034;-65
2022/05/07 02:12:51;;;;;;;34.60;4.75;;;34.40;20.80;;;;;;5015134;28;20066;-68
2022/05/07 02:15:17;;;;;;;23.50;3.67;;;34.30;20.60;;;;;;5013195;28;20503;-65
2022/05/07 02:17:44;;;;;;;26.17;3.85;;;34.20;20.20;;;;;;5012762;28;20036;-66
2022/05/07 02:20:10;;;;;;;35.35;4.20;;;34.20;20.40;;;;;;5016296;28;20123;-67
2022/05/07 02:22:37;;;;;;;35.22;3.95;;;34.00;20.30;;;;;;5016966;28;20033;-68
2022/05/07 02:25:04;;;;;;;32.65;3.40;;;33.90;20.40;;;;;;5014866;28;20119;-68
2022/05/07 02:27:31;;;;;;;33.35;4.70;;;33.80;20.30;;;;;;5014887;28;20088;-65
2022/05/07 02:29:57;;;;;;;29.98;4.03;;;33.70;20.30;;;;;;5018561;28;20055;-66
2022/05/07 02:32:24;;;;;;;28.58;4.68;;;33.60;20.30;;;;;;5015972;28;20520;-67
2022/05/07 02:34:50;;;;;;;36.25;4.28;;;33.50;20.30;;;;;;5014052;28;20043;-66
2022/05/07 02:37:16;;;;;;;45.75;5.32;;;33.40;20.30;;;;;;5013034;28;20037;-66
2022/05/07 02:39:43;;;;;;;37.53;4.47;;;33.30;20.50;;;;;;5015552;28;20040;-66
2022/05/07 02:44:54;;;;;;;44.90;4.78;;;33.10;20.70;;;;;;5023504;28;20115;-66
2022/05/07 02:47:20;;;;;;;49.88;6.10;;;33.00;20.80;;;;;;5015366;28;20045;-66
2022/05/07 02:49:46;;;;;;;56.80;6.38;;;32.90;21.00;;;;;;5016343;28;20418;-66
2022/05/07 02:52:13;;;;;;;46.90;5.97;;;32.80;21.10;;;;;;5026917;28;20069;-67
2022/05/07 02:54:39;;;;;;;40.15;4.75;;;32.70;21.30;;;;;;5014258;28;20036;-65
2022/05/07 02:57:05;;;;;;;53.80;5.15;;;32.60;21.20;;;;;;5015260;28;20042;-68
2022/05/07 02:59:32;;;;;;;64.60;5.82;;;32.50;21.40;;;;;;5007553;28;20040;-66
2022/05/07 03:01:58;;;;;;;63.40;6.13;;;32.50;21.40;;;;;;5019172;28;20052;-64
2022/05/07 03:04:25;;;;;;;57.97;5.63;;;32.50;21.60;;;;;;5026938;28;20050;-67
2022/05/07 03:06:51;;;;;;;39.65;4.95;;;32.40;21.80;;;;;;5016042;28;20091;-68
2022/05/07 03:09:17;;;;;;;44.78;6.05;;;32.30;21.90;;;;;;5014652;28;20046;-66
2022/05/07 03:11:44;;;;;;;59.60;5.78;;;32.20;21.70;;;;;;5013547;28;20065;-67
2022/05/07 03:14:10;;;;;;;47.53;5.18;;;32.00;21.80;;;;;;5042497;28;20061;-67
2022/05/07 03:16:38;;;;;;;53.63;6.22;;;31.90;21.80;;;;;;5012201;28;20051;-65
2022/05/07 03:19:06;;;;;;;50.10;7.90;;;31.90;21.70;;;;;;5013751;28;20068;-67
2022/05/07 03:21:33;;;;;;;41.72;7.15;;;31.80;21.90;;;;;;5014273;28;20448;-65
2022/05/07 03:23:59;;;;;;;45.70;5.70;;;31.80;22.30;;;;;;5013694;28;20538;-67
2022/05/07 03:26:25;;;;;;;29.55;5.63;;;31.80;22.50;;;;;;5013692;28;20492;-65
2022/05/07 03:28:52;;;;;;;31.58;5.22;;;31.50;22.40;;;;;;5013562;28;20059;-66
2022/05/07 03:31:18;;;;;;;25.88;4.07;;;31.50;22.10;;;;;;5013759;28;20145;-66
2022/05/07 03:33:46;;;;;;;30.80;3.90;;;31.40;22.30;;;;;;5014958;28;20065;-66
2022/05/07 03:36:13;;;;;;;35.78;4.68;;;31.40;22.30;;;;;;5031577;28;20149;-67
2022/05/07 03:38:40;;;;;;;45.55;5.57;;;31.40;22.40;;;;;;5007821;28;20071;-64
2022/05/07 03:41:06;;;;;;;36.67;4.80;;;31.40;23.10;;;;;;5013846;28;20044;-65
2022/05/07 03:43:36;;;;;;;41.75;4.72;;;31.30;22.70;;;;;;5014044;28;20543;-65
2022/05/07 03:46:07;;;;;;;24.08;4.15;;;31.30;23.10;;;;;;4997090;28;20512;-65
2022/05/07 03:48:33;;;;;;;29.33;4.60;;;31.20;22.50;;;;;;5012950;28;20074;-67
2022/05/07 03:51:00;;;;;;;30.30;4.30;;;31.10;22.50;;;;;;5013850;28;20424;-67
2022/05/07 03:53:30;;;;;;;32.80;4.88;;;31.10;22.50;;;;;;4996434;28;20084;-65
2022/05/07 03:56:00;;;;;;;37.90;5.00;;;31.00;22.50;;;;;;5013536;28;20039;-64
2022/05/07 03:58:27;;;;;;;36.45;5.13;;;31.00;22.90;;;;;;5026640;28;20045;-66
2022/05/07 04:00:55;;;;;;;27.95;4.90;;;30.90;22.90;;;;;;5043250;28;20047;-64
2022/05/07 04:03:22;;;;;;;37.95;6.07;;;30.80;23.20;;;;;;5014056;28;20056;-67
2022/05/07 04:05:49;;;;;;;28.92;6.70;;;30.70;23.20;;;;;;5013725;28;20053;-65
2022/05/07 04:08:16;;;;;;;47.53;8.32;;;30.70;23.40;;;;;;5019140;28;20065;-65
2022/05/07 04:10:44;;;;;;;36.50;7.63;;;30.70;24.10;;;;;;5018189;28;20060;-65
2022/05/07 04:13:14;;;;;;;42.63;7.18;;;30.60;23.80;;;;;;4997909;28;20102;-67
2022/05/07 04:15:40;;;;;;;33.88;5.85;;;30.60;23.90;;;;;;5028448;28;20055;-64
2022/05/07 04:18:07;;;;;;;30.00;4.80;;;30.50;24.00;;;;;;5009949;28;20188;-65
2022/05/07 04:20:34;;;;;;;29.50;6.05;;;30.50;23.80;;;;;;5010124;28;20079;-66
2022/05/07 04:23:01;;;;;;;35.50;5.75;;;30.40;24.00;;;;;;5015504;28;20060;-65
2022/05/07 04:25:28;;;;;;;43.17;5.35;;;30.40;24.30;;;;;;5016866;28;20054;-65
2022/05/07 04:27:54;;;;;;;26.88;5.00;;;30.30;24.70;;;;;;5014450;28;20064;-67
2022/05/07 04:30:21;;;;;;;35.40;5.15;;;30.20;24.20;;;;;;5014981;28;20054;-65
2022/05/07 04:32:48;;;;;;;28.98;4.95;;;30.10;24.20;;;;;;5019481;28;20072;-67
2022/05/07 04:35:14;;;;;;;26.00;5.35;;;30.10;24.50;;;;;;5016278;28;20085;-66
2022/05/07 04:37:41;;;;;;;32.67;6.40;;;30.10;24.80;;;;;;5016310;28;20054;-66
2022/05/07 04:40:09;;;;;;;22.83;5.65;;;29.90;24.80;;;;;;5023427;28;20064;-67
2022/05/07 04:42:37;;;;;;;27.85;5.95;;;29.90;24.50;;;;;;4999849;28;20149;-63
2022/05/07 04:45:06;;;;;;;37.78;6.22;;;29.90;24.40;;;;;;5021675;28;20526;-65
2022/05/07 04:47:33;;;;;;;38.70;6.30;;;29.90;24.40;;;;;;5012379;28;20066;-64
2022/05/07 04:49:59;;;;;;;33.50;6.35;;;29.80;24.70;;;;;;5018181;28;20534;-65
2022/05/07 04:52:26;;;;;;;35.72;6.05;;;29.70;24.20;;;;;;5014237;28;20114;-65
2022/05/07 04:54:53;;;;;;;39.85;6.90;;;29.70;24.30;;;;;;5015814;28;20613;-66
2022/05/07 04:57:20;;;;;;;42.33;8.40;;;29.70;24.60;;;;;;5017995;28;20060;-65
2022/05/07 04:59:47;;;;;;;31.17;6.72;;;29.70;24.80;;;;;;5019527;28;20059;-67
2022/05/07 05:02:13;;;;;;;36.25;6.80;;;29.60;24.80;;;;;;5015429;28;20514;-64
2022/05/07 05:04:40;;;;;;;32.90;6.95;;;29.60;25.50;;;;;;5014082;28;20563;-67
2022/05/07 05:07:06;;;;;;;42.50;6.95;;;29.50;25.10;;;;;;5015337;28;20064;-67
2022/05/07 05:09:32;;;;;;;26.63;6.60;;;29.50;25.30;;;;;;5014811;28;20136;-64
2022/05/07 05:11:59;;;;;;;38.58;7.43;;;29.50;25.40;;;;;;5016807;28;20575;-65
2022/05/07 05:17:10;;;;;;;35.65;7.50;;;29.40;25.60;;;;;;5013468;28;20128;-64
2022/05/07 05:19:36;;;;;;;33.65;7.22;;;29.30;25.80;;;;;;5014119;28;20064;-64
2022/05/07 05:22:03;;;;;;;32.30;6.60;;;29.30;25.60;;;;;;5015449;28;20050;-64
2022/05/07 05:24:30;;;;;;;38.42;6.60;;;29.20;25.70;;;;;;5014739;28;20059;-65
2022/05/07 05:26:56;;;;;;;38.72;7.40;;;29.20;26.10;;;;;;5015828;28;20065;-65
2022/05/07 05:29:23;;;;;;;38.88;7.88;;;29.20;26.10;;;;;;5014771;28;20082;-65
2022/05/07 05:31:49;;;;;;;34.63;7.10;;;29.10;26.30;;;;;;5015798;28;20438;-64
2022/05/07 05:34:16;;;;;;;35.53;6.15;;;29.00;26.40;;;;;;5044945;28;20070;-64
2022/05/07 05:36:42;;;;;;;40.25;6.50;;;28.90;26.30;;;;;;5014650;28;20074;-66
2022/05/07 05:39:09;;;;;;;278.08;243.05;;;28.80;26.30;;;;;;5015184;28;20511;-69
2022/05/07 05:41:36;;;;;;;52.95;16.20;;;28.80;26.50;;;;;;5013678;28;20154;-67
2022/05/07 05:44:03;;;;;;;47.88;11.23;;;28.80;26.50;;;;;;5019063;28;20152;-63
2022/05/07 05:46:29;;;;;;;33.20;6.13;;;28.60;26.90;;;;;;5014159;28;20071;-65
2022/05/07 05:48:55;;;;;;;30.35;5.00;;;28.60;26.90;;;;;;5012747;28;20131;-66
2022/05/07 05:51:22;;;;;;;36.67;6.45;;;28.60;26.90;;;;;;5013922;28;20057;-64
2022/05/07 05:53:48;;;;;;;39.40;6.55;;;28.60;27.50;;;;;;5043244;28;20102;-64
2022/05/07 05:56:14;;;;;;;45.75;6.53;;;28.60;27.50;;;;;;5014097;28;20063;-64
2022/05/07 05:58:41;;;;;;;59.70;7.20;;;28.50;27.50;;;;;;5015813;28;20214;-64
2022/05/07 06:01:07;;;;;;;50.40;7.32;;;28.50;27.80;;;;;;5016122;28;20074;-67
2022/05/07 06:03:34;;;;;;;45.13;6.43;;;28.40;27.90;;;;;;5012667;28;20064;-64
2022/05/07 06:06:01;;;;;;;26.80;5.65;;;28.40;27.90;;;;;;5013204;28;20439;-65
2022/05/07 06:08:27;;;;;;;35.25;6.03;;;28.30;28.30;;;;;;5011051;28;20065;-63
2022/05/07 06:10:55;;;;;;;55.55;7.22;;;28.30;28.10;;;;;;5014722;28;20100;-65
2022/05/07 06:13:22;;;;;;;27.90;5.97;;;28.20;28.20;;;;;;5038863;28;20116;-64
2022/05/07 06:15:51;;;;;;;28.58;4.95;;;28.10;28.70;;;;;;5014310;28;20442;-65
2022/05/07 06:18:22;;;;;;;36.47;5.22;;;28.10;28.10;;;;;;5015098;28;20068;-66
2022/05/07 06:20:52;;;;;;;35.63;5.70;;;28.10;28.30;;;;;;5014928;28;20057;-65
2022/05/07 06:23:19;;;;;;;36.92;5.72;;;28.10;28.60;;;;;;5014915;28;20066;-64
2022/05/07 06:28:30;;;;;;;29.40;4.95;;;27.90;28.90;;;;;;5013124;28;20073;-65
2022/05/07 06:30:58;;;;;;;37.53;6.00;;;27.90;28.90;;;;;;5015345;28;20073;-66
2022/05/07 06:33:24;;;;;;;33.00;5.57;;;27.90;29.20;;;;;;5017989;28;20650;-64
2022/05/07 06:35:50;;;;;;;38.55;6.32;;;27.90;29.30;;;;;;5045606;28;20098;-66
2022/05/07 06:38:17;;;;;;;40.22;6.40;;;27.90;29.50;;;;;;5013936;28;20066;-65
2022/05/07 06:40:43;;;;;;;34.75;6.38;;;27.80;29.50;;;;;;5018942;28;20528;-65
2022/05/07 06:43:10;;;;;;;35.90;5.60;;;27.80;29.60;;;;;;5015015;28;20067;-65
2022/05/07 06:45:38;;;;;;;31.63;6.32;;;27.80;29.60;;;;;;5012386;28;20071;-65
2022/05/07 06:48:08;;;;;;;44.38;6.13;;;27.70;29.60;;;;;;5012604;28;20074;-66
2022/05/07 06:50:34;;;;;;;39.38;6.32;;;27.60;29.70;;;;;;5014650;28;20067;-65
2022/05/07 06:53:01;;;;;;;34.50;6.38;;;27.60;30.00;;;;;;5028859;28;20097;-66
2022/05/07 06:55:31;;;;;;;33.88;5.85;;;27.60;30.00;;;;;;5014825;28;20120;-64
2022/05/07 06:57:59;;;;;;;41.28;6.68;;;27.60;29.90;;;;;;5014242;28;20072;-65
2022/05/07 07:00:25;;;;;;;31.25;6.28;;;27.50;30.00;;;;;;5013502;28;20056;-65
2022/05/07 07:02:52;;;;;;;30.42;6.00;;;27.50;30.20;;;;;;5013611;28;20069;-66
2022/05/07 07:05:18;;;;;;;23.90;5.20;;;27.40;30.20;;;;;;5016191;28;20539;-65
2022/05/07 07:07:44;;;;;;;24.63;6.00;;;27.40;30.10;;;;;;5009046;28;20085;-64
2022/05/07 07:10:11;;;;;;;31.02;6.68;;;27.40;30.60;;;;;;5013635;28;20079;-65
2022/05/07 07:12:40;;;;;;;32.38;6.03;;;27.30;30.30;;;;;;5013370;28;20334;-64
2022/05/07 07:15:11;;;;;;;46.70;6.50;;;27.30;30.90;;;;;;5014537;28;20119;-64
2022/05/07 07:17:37;;;;;;;31.13;6.85;;;27.20;30.70;;;;;;5010627;28;20115;-65
2022/05/07 07:20:04;;;;;;;34.63;6.15;;;27.20;30.50;;;;;;5013818;28;20072;-64
2022/05/07 07:22:30;;;;;;;34.80;6.28;;;27.20;30.90;;;;;;5011736;28;20072;-66
2022/05/07 07:24:56;;;;;;;37.17;6.25;;;27.00;30.50;;;;;;5016043;28;20070;-65
2022/05/07 07:27:23;;;;;;;35.65;6.35;;;27.00;31.00;;;;;;5010432;28;20065;-65
2022/05/07 07:29:49;;;;;;;35.80;6.60;;;26.90;31.00;;;;;;5014228;28;20139;-66
2022/05/07 07:32:16;;;;;;;25.75;4.82;;;26.90;31.10;;;;;;5013711;28;20164;-67
2022/05/07 07:34:43;;;;;;;31.15;4.97;;;26.80;31.40;;;;;;5014407;28;20066;-65
2022/05/07 07:37:09;;;;;;;18.02;4.18;;;26.80;31.50;;;;;;5011130;28;20551;-64
2022/05/07 07:39:35;;;;;;;30.52;4.97;;;26.80;31.90;;;;;;5013095;28;20066;-64
2022/05/07 07:42:02;;;;;;;29.90;3.80;;;26.70;32.00;;;;;;5012530;28;20160;-64
2022/05/07 07:44:28;;;;;;;30.42;4.22;;;26.70;32.10;;;;;;5015089;28;20147;-66
2022/05/07 07:49:39;;;;;;;25.20;5.05;;;26.60;32.70;;;;;;5014745;28;20088;-66
2022/05/07 07:52:06;;;;;;;31.42;4.45;;;26.60;32.70;;;;;;5014528;28;20065;-65
2022/05/07 07:54:32;;;;;;;23.88;4.68;;;26.50;32.90;;;;;;5010910;28;20132;-64
2022/05/07 07:57:02;;;;;;;23.55;3.90;;;26.50;33.10;;;;;;5011611;28;20074;-65
2022/05/07 07:59:29;;;;;;;33.97;6.60;;;26.40;33.00;;;;;;5010529;28;20091;-67
2022/05/07 08:01:56;;;;;;;28.10;7.13;;;26.40;33.00;;;;;;5003599;28;20100;-66
2022/05/07 08:04:25;;;;;;;35.45;6.50;;;26.40;33.30;;;;;;5016931;28;20102;-65
2022/05/07 08:11:40;;;;;;;37.85;6.32;;;26.30;33.10;;;;;;5016679;28;20090;-66
2022/05/07 08:12:25;;;;;;;34.30;5.70;;;26.20;33.60;;;;;;5012707;28;20330;-64
2022/05/07 08:14:52;;;;;;;32.58;5.68;;;26.10;34.00;;;;;;5012734;28;20070;-67
2022/05/07 08:17:18;;;;;;;25.10;5.45;;;26.00;34.70;;;;;;5013348;28;20078;-65
2022/05/07 08:19:44;;;;;;;29.65;5.88;;;26.00;35.10;;;;;;5011652;28;20521;-66
2022/05/07 08:22:11;;;;;;;26.40;4.13;;;26.10;35.60;;;;;;5012485;28;20505;-64
2022/05/07 08:24:37;;;;;;;18.95;4.18;;;26.00;36.10;;;;;;5017431;28;20725;-63
2022/05/07 08:27:05;;;;;;;28.58;4.68;;;26.00;36.50;;;;;;5013197;28;20155;-63
2022/05/07 08:29:31;;;;;;;24.83;4.80;;;26.30;36.70;;;;;;5014509;28;20073;-63
2022/05/07 08:31:58;;;;;;;22.48;4.78;;;26.50;37.00;;;;;;5014048;28;20076;-62
2022/05/07 08:34:24;;;;;;;27.65;4.53;;;26.70;37.20;;;;;;5012048;28;20134;-64
2022/05/07 08:36:51;;;;;;;24.45;5.00;;;26.80;37.50;;;;;;5023623;28;20071;-62
2022/05/07 08:39:17;;;;;;;21.92;4.18;;;26.90;37.30;;;;;;5017157;28;20113;-65
2022/05/07 08:41:44;;;;;;;26.65;4.63;;;26.90;37.50;;;;;;5006923;28;20076;-62
2022/05/07 08:44:11;;;;;;;22.35;4.07;;;26.80;37.90;;;;;;4990816;28;20089;-63
2022/05/07 08:46:39;;;;;;;22.98;4.03;;;26.80;38.50;;;;;;5012876;28;20069;-62
2022/05/07 08:49:05;;;;;;;22.00;3.55;;;26.80;38.80;;;;;;5015940;28;20179;-64
2022/05/07 08:51:33;;;;;;;18.20;4.60;;;26.80;39.00;;;;;;5012733;28;20066;-64
2022/05/07 08:54:01;;;;;;;14.57;3.97;;;26.70;39.00;;;;;;5012508;28;20108;-63
2022/05/07 08:56:27;;;;;;;12.63;3.20;;;26.70;38.80;;;;;;5017537;28;20066;-62
2022/05/07 08:58:55;;;;;;;14.38;3.35;;;26.70;38.50;;;;;;5011146;28;20077;-63
2022/05/07 09:01:21;;;;;;;16.50;3.78;;;26.60;38.20;;;;;;5012281;28;20099;-63
2022/05/07 09:03:50;;;;;;;14.25;3.42;;;26.60;38.20;;;;;;5011850;28;20094;-64
2022/05/07 09:06:27;;;;;;;15.88;3.40;;;26.60;38.20;;;;;;5011962;28;20125;-62
2022/05/07 09:08:57;;;;;;;15.75;3.17;;;26.60;38.20;;;;;;5013609;28;20077;-63
2022/05/07 09:11:24;;;;;;;16.05;2.88;;;26.50;38.40;;;;;;5016032;28;20176;-63
2022/05/07 09:14:04;;;;;;;18.38;3.53;;;26.50;38.50;;;;;;5031086;28;20129;-63
2022/05/07 09:16:37;;;;;;;22.98;2.95;;;26.50;38.40;;;;;;5012132;28;20074;-63
2022/05/07 09:19:03;;;;;;;17.55;3.17;;;26.40;38.30;;;;;;5017255;28;20147;-63
2022/05/07 09:21:32;;;;;;;11.85;3.00;;;26.40;38.30;;;;;;5002777;28;20062;-63
2022/05/07 09:24:02;;;;;;;18.13;2.92;;;26.40;38.30;;;;;;5011138;28;20090;-64
2022/05/07 09:26:35;;;;;;;16.27;3.08;;;26.30;38.10;;;;;;5015713;28;20478;-61
2022/05/07 09:29:03;;;;;;;15.23;3.15;;;26.20;38.00;;;;;;5023322;28;20075;-60
2022/05/07 09:31:34;;;;;;;18.92;3.03;;;26.20;37.90;;;;;;5013071;28;20095;-63
2022/05/07 09:36:56;;;;;;;19.45;3.22;;;26.20;37.30;;;;;;5015599;28;20079;-62
2022/05/07 09:39:22;;;;;;;22.08;2.90;;;26.20;37.10;;;;;;5015429;28;21166;-62
2022/05/07 09:41:55;;;;;;;18.50;3.70;;;26.20;36.90;;;;;;5016597;28;20086;-61
2022/05/07 09:44:24;;;;;;;22.80;3.75;;;26.10;36.40;;;;;;5018898;28;20093;-62
2022/05/07 09:46:50;;;;;;;20.48;3.55;;;26.10;36.00;;;;;;4996032;28;20075;-63
2022/05/07 09:49:17;;;;;;;16.13;3.58;;;26.00;35.80;;;;;;5014445;28;20141;-63
2022/05/07 09:51:44;;;;;;;23.45;3.92;;;26.00;35.80;;;;;;5010733;28;20531;-63
2022/05/07 09:59:43;;;;;;;16.25;4.22;;;26.00;35.80;;;;;;5014987;28;20078;-63
2022/05/07 10:02:45;;;;;;;18.08;4.10;;;25.90;35.90;;;;;;5012343;28;20068;-63
2022/05/07 10:05:41;;;;;;;22.30;3.75;;;25.80;35.90;;;;;;5019792;28;20064;-63
2022/05/07 10:08:41;;;;;;;23.88;5.90;;;25.80;36.20;;;;;;5044192;28;20123;-63
2022/05/07 10:11:08;;;;;;;26.63;6.07;;;25.70;36.50;;;;;;5020875;28;20072;-62
2022/05/07 10:13:35;;;;;;;40.28;7.13;;;25.60;37.00;;;;;;5004688;28;20095;-62
2022/05/07 10:16:03;;;;;;;50.03;8.32;;;25.40;37.10;;;;;;5013723;28;20125;-61
2022/05/07 10:18:44;;;;;;;37.38;7.43;;;25.30;36.90;;;;;;4998500;28;20526;-65
2022/05/07 10:21:12;;;;;;;35.17;8.13;;;25.30;36.60;;;;;;5013431;28;20086;-63
2022/05/07 10:23:49;;;;;;;34.15;6.10;;;25.30;36.50;;;;;;4997388;28;20100;-65
2022/05/07 10:26:16;;;;;;;31.88;6.63;;;25.20;36.50;;;;;;5015187;28;20188;-62
2022/05/07 10:28:42;;;;;;;37.63;6.70;;;25.10;36.70;;;;;;5010819;28;20132;-63
2022/05/07 10:31:23;;;;;;;24.15;6.80;;;25.10;36.90;;;;;;5015572;28;20080;-63
2022/05/07 10:33:51;;;;;;;34.03;6.55;;;25.10;37.20;;;;;;5015939;28;20446;-64
2022/05/07 10:36:17;;;;;;;29.25;6.93;;;25.00;37.30;;;;;;5018152;28;20084;-63
2022/05/07 10:38:46;;;;;;;38.72;7.05;;;24.90;37.60;;;;;;5016945;28;20074;-65
2022/05/07 10:41:12;;;;;;;32.97;6.10;;;24.90;37.50;;;;;;5014034;28;20087;-64
2022/05/07 10:43:42;;;;;;;28.85;6.63;;;24.80;37.60;;;;;;5017435;28;20072;-63
2022/05/07 10:46:12;;;;;;;33.58;6.60;;;24.70;37.90;;;;;;5045144;28;20094;-63
2022/05/07 10:48:55;;;;;;;30.85;6.55;;;24.70;37.90;;;;;;5009883;28;20098;-63
2022/05/07 10:51:33;;;;;;;26.95;6.13;;;24.60;37.90;;;;;;5011603;28;20150;-64
2022/05/07 10:54:03;;;;;;;23.17;6.45;;;24.60;37.70;;;;;;5011066;28;20112;-64
2022/05/07 10:56:31;;;;;;;28.42;7.03;;;24.50;37.80;;;;;;5012881;28;20103;-65
2022/05/07 10:58:59;;;;;;;27.52;5.90;;;24.50;38.00;;;;;;5013264;28;20130;-63
2022/05/07 11:01:27;;;;;;;28.92;6.57;;;24.40;38.00;;;;;;5012507;28;21416;-63
2022/05/07 11:04:05;;;;;;;33.83;5.90;;;24.40;38.30;;;;;;5016907;28;20080;-64
2022/05/07 11:06:43;;;;;;;31.80;6.05;;;24.30;38.10;;;;;;5012372;28;20079;-64
2022/05/07 11:09:20;;;;;;;38.88;6.05;;;24.30;38.10;;;;;;5012838;28;20522;-64
2022/05/07 11:11:49;;;;;;;34.97;7.18;;;24.20;38.50;;;;;;5032177;28;20080;-64
2022/05/07 11:14:23;;;;;;;32.13;6.47;;;24.20;38.50;;;;;;5012994;28;20090;-63
2022/05/07 11:16:50;;;;;;;28.50;7.60;;;24.20;38.70;;;;;;5013989;28;20068;-64
2022/05/07 11:19:27;;;;;;;33.05;6.85;;;24.10;38.70;;;;;;5013903;28;20064;-65
2022/05/07 11:21:55;;;;;;;36.72;7.05;;;24.00;38.70;;;;;;5013612;28;20413;-65
2022/05/07 11:24:24;;;;;;;42.08;8.10;;;23.90;38.90;;;;;;5030313;28;20088;-64
2022/05/07 11:26:56;;;;;;;36.10;8.40;;;23.90;39.30;;;;;;5012768;28;20423;-64
2022/05/07 11:29:23;;;;;;;36.30;7.82;;;23.90;39.30;;;;;;5012578;28;20130;-65
2022/05/07 11:32:01;;;;;;;32.35;7.60;;;23.90;39.10;;;;;;5014928;28;20168;-64
2022/05/07 11:34:37;;;;;;;37.13;6.53;;;23.90;39.60;;;;;;5014437;28;20172;-64
2022/05/07 11:37:17;;;;;;;;;;;23.80;39.30;;;;;;5021762;28;20174;-64
2022/05/07 11:39:51;;;;;;;30.10;7.22;;;23.70;39.40;;;;;;5014264;28;19955;-65
2022/05/07 11:42:30;;;;;;;33.67;7.20;;;23.70;39.80;;;;;;5014270;28;20835;-63
2022/05/07 11:47:53;;;;;;;37.97;6.82;;;23.50;40.10;;;;;;5011951;28;20080;-64
2022/05/07 11:50:22;;;;;;;39.30;7.32;;;23.50;40.20;;;;;;5023713;28;20546;-63
2022/05/07 11:52:48;;;;;;;30.75;6.60;;;23.50;40.30;;;;;;5013429;28;20194;-64
2022/05/07 11:55:17;;;;;;;29.63;6.93;;;23.40;40.20;;;;;;5011986;28;20130;-68
2022/05/07 11:57:46;;;;;;;34.60;6.28;;;23.40;40.10;;;;;;5012884;28;20072;-63
2022/05/07 12:00:18;;;;;;;35.50;6.55;;;23.40;39.80;;;;;;5006753;28;20097;-62
2022/05/07 12:02:52;;;;;;;42.22;6.80;;;23.40;39.40;;;;;;5012531;28;20538;-64
2022/05/07 12:05:19;;;;;;;29.42;6.25;;;23.30;39.40;;;;;;5005035;28;20078;-64
2022/05/07 12:07:51;;;;;;;28.23;6.57;;;23.40;39.30;;;;;;5013105;28;20088;-64
2022/05/07 12:10:18;;;;;;;41.40;6.57;;;23.30;39.30;;;;;;4997564;28;20537;-62
2022/05/07 12:12:46;;;;;;;22.63;6.47;;;23.30;39.00;;;;;;4995718;28;20097;-64
2022/05/07 12:15:13;;;;;;;35.05;6.72;;;23.30;38.60;;;;;;5015710;28;20069;-64
2022/05/07 12:17:55;;;;;;;27.00;6.55;;;23.30;37.90;;;;;;5009036;28;20084;-64
2022/05/07 12:20:25;;;;;;;23.80;6.78;;;23.20;37.90;;;;;;5009823;28;20068;-63
2022/05/07 12:31:07;;;;;;;36.47;7.00;;;23.20;37.10;;;;;;5012456;28;20229;-63
2022/05/07 12:33:37;;;;;;;28.38;7.43;;;23.20;37.00;;;;;;5030062;28;20083;-64
2022/05/07 12:36:04;;;;;;;28.33;6.63;;;23.20;36.70;;;;;;5016681;28;20176;-65
2022/05/07 12:38:30;;;;;;;34.65;6.55;;;23.20;36.70;;;;;;5018910;28;20064;-64
2022/05/07 12:40:56;;;;;;;26.70;6.13;;;23.10;36.40;;;;;;5008231;28;20068;-65
2022/05/07 12:43:23;;;;;;;24.13;6.78;;;23.20;36.40;;;;;;5011338;28;20080;-64
2022/05/07 12:45:49;;;;;;;33.05;6.70;;;23.10;36.10;;;;;;5016350;28;20107;-65
2022/05/07 12:48:17;;;;;;;32.75;6.88;;;23.10;36.00;;;;;;5013766;28;20076;-64
2022/05/07 12:50:46;;;;;;;35.67;7.53;;;23.10;35.80;;;;;;5014242;28;20075;-64
2022/05/07 12:53:14;;;;;;;39.03;6.95;;;23.10;35.90;;;;;;5022448;28;20132;-63
2022/05/07 12:55:42;;;;;;;32.00;7.47;;;23.20;36.00;;;;;;5016555;28;20416;-63
2022/05/07 12:58:10;;;;;;;27.80;7.68;;;23.20;35.90;;;;;;4991308;28;20136;-62
2022/05/07 13:00:38;;;;;;;30.52;8.35;;;23.20;35.90;;;;;;5015193;28;20119;-64
2022/05/07 13:03:04;;;;;;;35.17;7.97;;;23.20;36.10;;;;;;5015607;28;20088;-63
2022/05/07 13:05:33;;;;;;;31.85;8.15;;;23.10;36.20;;;;;;5021598;28;20077;-63
2022/05/07 13:08:00;;;;;;;49.92;10.48;;;23.20;35.90;;;;;;5010999;28;20084;-64
2022/05/07 13:10:28;;;;;;;55.22;11.43;;;23.20;36.40;;;;;;5014332;28;20530;-63
2022/05/07 13:12:54;;;;;;;37.95;10.07;;;23.20;36.20;;;;;;5012141;28;20087;-64
2022/05/07 13:15:20;;;;;;;41.22;10.77;;;23.20;36.20;;;;;;5016077;28;20080;-63
2022/05/07 13:17:47;;;;;;;37.95;10.40;;;23.20;36.30;;;;;;5011658;28;20100;-65